Time,TemperatureF,DewpointF,PressureIn,WindDirection,WindDirectionDegrees,WindSpeedMPH,WindSpeedGustMPH,Humidity,HourlyPrecipIn,Conditions,Clouds,dailyrainin,SoftwareType,DateUTC
2013-02-06 00:00:00,36.1,31.4,30.15,NE,51,0.0,2.0,83,0.00,,,0.00,WUHU216DAVISVP2,2013-02-06 06:00:00,
2013-02-06 00:05:00,35.9,31.2,30.15,NNW,338,1.0,3.0,83,0.00,,,0.00,WUHU216DAVISVP2,2013-02-06 06:05:00,
2013-02-06 00:10:00,35.9,31.2,30.15,North,354,0.0,4.0,83,0.00,,,0.00,WUHU216DAVISVP2,2013-02-06 06:10:00,
2013-02-06 00:15:00,35.8,31.1,30.15,NW,306,2.0,5.0,83,0.00,,,0.00,WUHU216DAVISVP2,2013-02-06 06:15:00,
2013-02-06 00:20:00,35.7,31.0,30.15,NNW,333,1.0,5.0,83,0.00,,,0.00,WUHU216DAVISVP2,2013-02-06 06:20:00,
2013-02-06 00:25:00,35.7,31.0,30.15,NNE,32,1.0,4.0,83,0.00,,,0.00,WUHU216DAVISVP2,2013-02-06 06:25:00,
2013-02-06 00:30:00,35.5,30.8,30.15,ENE,67,1.0,4.0,83,0.00,,,0.00,WUHU216DAVISVP2,2013-02-06 06:30:00,
2013-02-06 00:35:00,35.4,31.0,30.15,NNW,341,0.0,3.0,84,0.00,,,0.00,WUHU216DAVISVP2,2013-02-06 06:35:00,
2013-02-06 00:40:00,35.3,30.9,30.16,North,9,0.0,4.0,84,0.00,,,0.00,WUHU216DAVISVP2,2013-02-06 06:40:00,
2013-02-06 00:45:00,35.3,30.9,30.16,NNW,342,1.0,4.0,84,0.00,,,0.00,WUHU216DAVISVP2,2013-02-06 06:45:00,
2013-02-06 00:50:00,35.2,30.5,30.15,North,11,1.0,3.0,83,0.00,,,0.00,WUHU216DAVISVP2,2013-02-06 06:50:00,
2013-02-06 00:55:00,35.2,30.5,30.16,ENE,67,0.0,3.0,83,0.00,,,0.00,WUHU216DAVISVP2,2013-02-06 06:55:00,
2013-02-06 01:00:00,35.1,30.4,30.16,NNE,18,2.0,3.0,83,0.00,,,0.00,WUHU216DAVISVP2,2013-02-06 07:00:00,
2013-02-06 01:05:00,34.9,30.3,30.16,NW,317,1.0,3.0,83,0.00,,,0.00,WUHU216DAVISVP2,2013-02-06 07:05:00,
2013-02-06 01:10:00,34.7,30.1,30.16,North,8,1.0,2.0,83,0.00,,,0.00,WUHU216DAVISVP2,2013-02-06 07:10:00,
2013-02-06 01:15:00,34.6,30.2,30.16,North,8,0.0,1.0,84,0.00,,,0.00,WUHU216DAVISVP2,2013-02-06 07:15:00,
2013-02-06 01:20:00,34.3,30.0,30.17,North,7,0.0,1.0,84,0.00,,,0.00,WUHU216DAVISVP2,2013-02-06 07:20:00,
2013-02-06 01:25:00,34.3,30.0,30.17,NNW,348,0.0,2.0,84,0.00,,,0.00,WUHU216DAVISVP2,2013-02-06 07:25:00,
2013-02-06 01:30:00,34.3,30.0,30.17,North,3,0.0,2.0,84,0.00,,,0.00,WUHU216DAVISVP2,2013-02-06 07:30:00,
2013-02-06 01:35:00,34.1,30.0,30.17,North,1,0.0,2.0,85,0.00,,,0.00,WUHU216DAVISVP2,2013-02-06 07:35:00,
2013-02-06 01:40:00,33.9,29.8,30.17,NNW,345,0.0,2.0,85,0.00,,,0.00,WUHU216DAVISVP2,2013-02-06 07:40:00,
2013-02-06 01:45:00,33.7,30.0,30.17,NNW,346,2.0,3.0,86,0.00,,,0.00,WUHU216DAVISVP2,2013-02-06 07:45:00,
2013-02-06 01:50:00,33.4,29.9,30.17,North,352,2.0,3.0,87,0.00,,,0.00,WUHU216DAVISVP2,2013-02-06 07:50:00,
2013-02-06 01:55:00,33.1,29.6,30.18,North,351,1.0,3.0,87,0.00,,,0.00,WUHU216DAVISVP2,2013-02-06 07:55:00,
2013-02-06 02:00:00,32.9,29.7,30.18,NNW,345,2.0,2.0,88,0.00,,,0.00,WUHU216DAVISVP2,2013-02-06 08:00:00,
2013-02-06 02:05:00,32.8,29.6,30.17,North,360,1.0,2.0,88,0.00,,,0.00,WUHU216DAVISVP2,2013-02-06 08:05:00,
2013-02-06 02:10:00,32.6,29.4,30.17,North,360,0.0,2.0,88,0.00,,,0.00,WUHU216DAVISVP2,2013-02-06 08:10:00,
2013-02-06 02:15:00,32.4,29.2,30.18,North,359,0.0,1.0,88,0.00,,,0.00,WUHU216DAVISVP2,2013-02-06 08:15:00,
2013-02-06 02:20:00,32.3,29.4,30.18,North,351,1.0,1.0,89,0.00,,,0.00,WUHU216DAVISVP2,2013-02-06 08:20:00,
2013-02-06 02:25:00,32.3,29.4,30.18,NNW,346,0.0,1.0,89,0.00,,,0.00,WUHU216DAVISVP2,2013-02-06 08:25:00,
2013-02-06 02:30:00,32.0,29.1,30.18,NNW,345,0.0,1.0,89,0.00,,,0.00,WUHU216DAVISVP2,2013-02-06 08:30:00,
2013-02-06 02:35:00,31.7,28.8,30.18,NNW,345,0.0,1.0,89,0.00,,,0.00,WUHU216DAVISVP2,2013-02-06 08:35:00,
2013-02-06 02:40:00,31.4,28.5,30.18,NNW,345,0.0,0.0,89,0.00,,,0.00,WUHU216DAVISVP2,2013-02-06 08:40:00,
2013-02-06 02:45:00,31.4,28.8,30.19,NNW,345,0.0,0.0,90,0.00,,,0.00,WUHU216DAVISVP2,2013-02-06 08:45:00,
2013-02-06 02:50:00,31.5,28.9,30.19,NNW,346,0.0,0.0,90,0.00,,,0.00,WUHU216DAVISVP2,2013-02-06 08:50:00,
2013-02-06 02:55:00,31.4,28.8,30.19,NNW,345,0.0,0.0,90,0.00,,,0.00,WUHU216DAVISVP2,2013-02-06 08:55:00,
2013-02-06 03:00:00,31.5,28.9,30.19,NNW,345,0.0,1.0,90,0.00,,,0.00,WUHU216DAVISVP2,2013-02-06 09:00:00,
2013-02-06 03:05:00,31.4,28.8,30.19,NNW,345,0.0,1.0,90,0.00,,,0.00,WUHU216DAVISVP2,2013-02-06 09:05:00,
2013-02-06 03:10:00,31.5,28.9,30.19,NNE,20,0.0,1.0,90,0.00,,,0.00,WUHU216DAVISVP2,2013-02-06 09:10:00,
2013-02-06 03:15:00,31.7,29.1,30.19,NNE,20,0.0,1.0,90,0.00,,,0.00,WUHU216DAVISVP2,2013-02-06 09:15:00,
2013-02-06 03:20:00,31.7,28.8,30.19,NNE,20,0.0,1.0,89,0.00,,,0.00,WUHU216DAVISVP2,2013-02-06 09:20:00,
2013-02-06 03:25:00,31.4,28.5,30.19,NNE,20,0.0,0.0,89,0.00,,,0.00,WUHU216DAVISVP2,2013-02-06 09:25:00,
2013-02-06 03:30:00,31.4,28.8,30.19,NNE,20,0.0,0.0,90,0.00,,,0.00,WUHU216DAVISVP2,2013-02-06 09:30:00,
2013-02-06 03:35:00,31.8,28.9,30.19,NNE,26,0.0,1.0,89,0.00,,,0.00,WUHU216DAVISVP2,2013-02-06 09:35:00,
2013-02-06 03:40:00,31.8,28.9,30.18,NNE,26,0.0,1.0,89,0.00,,,0.00,WUHU216DAVISVP2,2013-02-06 09:40:00,
2013-02-06 03:45:00,31.6,28.7,30.19,NNE,25,0.0,1.0,89,0.00,,,0.00,WUHU216DAVISVP2,2013-02-06 09:45:00,
2013-02-06 03:50:00,31.3,28.4,30.19,NNE,26,0.0,0.0,89,0.00,,,0.00,WUHU216DAVISVP2,2013-02-06 09:50:00,
2013-02-06 03:55:00,31.2,28.6,30.20,NNE,25,0.0,1.0,90,0.00,,,0.00,WUHU216DAVISVP2,2013-02-06 09:55:00,
2013-02-06 04:00:00,31.0,28.4,30.20,NNE,25,0.0,1.0,90,0.00,,,0.00,WUHU216DAVISVP2,2013-02-06 10:00:00,
2013-02-06 04:05:00,30.6,28.0,30.20,NNE,25,0.0,1.0,90,0.00,,,0.00,WUHU216DAVISVP2,2013-02-06 10:05:00,
2013-02-06 04:10:00,30.6,28.2,30.20,NNE,25,0.0,0.0,91,0.00,,,0.00,WUHU216DAVISVP2,2013-02-06 10:10:00,
2013-02-06 04:15:00,30.3,27.9,30.20,NNE,25,0.0,0.0,91,0.00,,,0.00,WUHU216DAVISVP2,2013-02-06 10:15:00,
2013-02-06 04:20:00,30.1,27.8,30.20,NNE,25,0.0,0.0,91,0.00,,,0.00,WUHU216DAVISVP2,2013-02-06 10:20:00,
2013-02-06 04:25:00,30.4,28.4,30.20,NNE,25,0.0,0.0,92,0.00,,,0.00,WUHU216DAVISVP2,2013-02-06 10:25:00,
2013-02-06 04:30:00,30.5,28.1,30.20,NNE,26,0.0,1.0,91,0.00,,,0.00,WUHU216DAVISVP2,2013-02-06 10:30:00,
2013-02-06 04:35:00,30.2,27.8,30.20,NNE,26,0.0,1.0,91,0.00,,,0.00,WUHU216DAVISVP2,2013-02-06 10:35:00,
2013-02-06 04:40:00,30.1,27.7,30.20,NNE,26,0.0,0.0,91,0.00,,,0.00,WUHU216DAVISVP2,2013-02-06 10:40:00,
2013-02-06 04:45:00,29.7,27.4,30.20,NNE,26,0.0,0.0,91,0.00,,,0.00,WUHU216DAVISVP2,2013-02-06 10:45:00,
2013-02-06 04:50:00,29.7,27.6,30.21,NNE,26,0.0,0.0,92,0.00,,,0.00,WUHU216DAVISVP2,2013-02-06 10:50:00,
2013-02-06 04:55:00,29.7,27.7,30.21,NNE,26,0.0,0.0,92,0.00,,,0.00,WUHU216DAVISVP2,2013-02-06 10:55:00,
2013-02-06 05:00:00,29.6,27.8,30.22,NNE,26,0.0,0.0,93,0.00,,,0.00,WUHU216DAVISVP2,2013-02-06 11:00:00,
2013-02-06 05:05:00,29.4,27.6,30.21,NNE,26,0.0,0.0,93,0.00,,,0.00,WUHU216DAVISVP2,2013-02-06 11:05:00,
2013-02-06 05:10:00,29.2,27.4,30.21,NNE,26,0.0,0.0,93,0.00,,,0.00,WUHU216DAVISVP2,2013-02-06 11:10:00,
2013-02-06 05:15:00,29.1,27.3,30.21,NNE,26,0.0,0.0,93,0.00,,,0.00,WUHU216DAVISVP2,2013-02-06 11:15:00,
2013-02-06 05:20:00,29.0,27.2,30.21,NNE,26,0.0,0.0,93,0.00,,,0.00,WUHU216DAVISVP2,2013-02-06 11:20:00,
2013-02-06 05:25:00,28.8,26.7,30.21,NNE,26,0.0,0.0,92,0.00,,,0.00,WUHU216DAVISVP2,2013-02-06 11:25:00,
2013-02-06 05:30:00,28.4,26.3,30.21,NNE,26,0.0,0.0,92,0.00,,,0.00,WUHU216DAVISVP2,2013-02-06 11:30:00,
2013-02-06 05:35:00,28.3,26.5,30.22,NNE,26,0.0,0.0,93,0.00,,,0.00,WUHU216DAVISVP2,2013-02-06 11:35:00,
2013-02-06 05:40:00,28.2,26.4,30.22,NNE,26,0.0,0.0,93,0.00,,,0.00,WUHU216DAVISVP2,2013-02-06 11:40:00,
2013-02-06 05:45:00,28.1,26.5,30.22,NNE,26,0.0,0.0,94,0.00,,,0.00,WUHU216DAVISVP2,2013-02-06 11:45:00,
2013-02-06 05:50:00,28.2,26.6,30.22,NNE,26,0.0,0.0,94,0.00,,,0.00,WUHU216DAVISVP2,2013-02-06 11:50:00,
2013-02-06 05:55:00,28.1,26.5,30.23,NNE,26,0.0,0.0,94,0.00,,,0.00,WUHU216DAVISVP2,2013-02-06 11:55:00,
2013-02-06 06:00:00,28.1,26.5,30.23,NNE,26,0.0,0.0,94,0.00,,,0.00,WUHU216DAVISVP2,2013-02-06 12:00:00,
2013-02-06 06:05:00,28.3,27.0,30.23,NNE,26,0.0,0.0,95,0.00,,,0.00,WUHU216DAVISVP2,2013-02-06 12:05:00,
2013-02-06 06:10:00,28.4,27.1,30.23,NNE,26,0.0,0.0,95,0.00,,,0.00,WUHU216DAVISVP2,2013-02-06 12:10:00,
2013-02-06 06:15:00,28.6,27.3,30.23,NNE,26,0.0,0.0,95,0.00,,,0.00,WUHU216DAVISVP2,2013-02-06 12:15:00,
2013-02-06 06:20:00,28.5,27.2,30.23,NNE,26,0.0,0.0,95,0.00,,,0.00,WUHU216DAVISVP2,2013-02-06 12:20:00,
2013-02-06 06:25:00,28.4,26.8,30.23,NNE,26,0.0,0.0,94,0.00,,,0.00,WUHU216DAVISVP2,2013-02-06 12:25:00,
2013-02-06 06:30:00,28.4,27.1,30.23,NNE,26,0.0,0.0,95,0.00,,,0.00,WUHU216DAVISVP2,2013-02-06 12:30:00,
2013-02-06 06:35:00,28.2,26.6,30.23,NNE,26,0.0,0.0,94,0.00,,,0.00,WUHU216DAVISVP2,2013-02-06 12:35:00,
2013-02-06 06:40:00,27.9,26.4,30.23,NE,45,0.0,0.0,94,0.00,,,0.00,WUHU216DAVISVP2,2013-02-06 12:40:00,
2013-02-06 06:45:00,27.7,26.2,30.23,NE,45,0.0,0.0,94,0.00,,,0.00,WUHU216DAVISVP2,2013-02-06 12:45:00,
2013-02-06 06:50:00,27.4,25.9,30.22,NE,56,0.0,0.0,94,0.00,,,0.00,WUHU216DAVISVP2,2013-02-06 12:50:00,
2013-02-06 06:55:00,27.2,25.7,30.22,NE,56,0.0,0.0,94,0.00,,,0.00,WUHU216DAVISVP2,2013-02-06 12:55:00,
2013-02-06 07:00:00,27.1,25.6,30.22,NE,56,0.0,0.0,94,0.00,,,0.00,WUHU216DAVISVP2,2013-02-06 13:00:00,
2013-02-06 07:05:00,27.3,25.8,30.22,NE,56,0.0,0.0,94,0.00,,,0.00,WUHU216DAVISVP2,2013-02-06 13:05:00,
2013-02-06 07:10:00,27.3,25.8,30.23,NE,56,0.0,0.0,94,0.00,,,0.00,WUHU216DAVISVP2,2013-02-06 13:10:00,
2013-02-06 07:15:00,27.4,25.9,30.23,NE,55,0.0,0.0,94,0.00,,,0.00,WUHU216DAVISVP2,2013-02-06 13:15:00,
2013-02-06 07:20:00,27.8,26.5,30.23,NE,56,0.0,0.0,95,0.00,,,0.00,WUHU216DAVISVP2,2013-02-06 13:20:00,
2013-02-06 07:27:00,27.5,25.7,30.23,NE,56,0.0,0.0,93,0.00,,,0.00,WUHU216DAVISVP2,2013-02-06 13:27:00,
2013-02-06 07:32:00,27.8,26.3,30.23,NE,56,0.0,0.0,94,0.00,,,0.00,WUHU216DAVISVP2,2013-02-06 13:32:00,
2013-02-06 07:37:00,28.4,27.1,30.23,ENE,75,0.0,0.0,95,0.00,,,0.00,WUHU216DAVISVP2,2013-02-06 13:37:00,
2013-02-06 07:42:00,29.2,27.9,30.23,ESE,108,0.0,1.0,95,0.00,,,0.00,WUHU216DAVISVP2,2013-02-06 13:42:00,
2013-02-06 07:47:00,30.1,28.6,30.23,ESE,108,0.0,1.0,94,0.00,,,0.00,WUHU216DAVISVP2,2013-02-06 13:47:00,
2013-02-06 07:52:00,31.1,29.0,30.24,East,83,1.0,1.0,92,0.00,,,0.00,WUHU216DAVISVP2,2013-02-06 13:52:00,
2013-02-06 07:57:00,31.7,29.3,30.24,East,94,1.0,2.0,91,0.00,,,0.00,WUHU216DAVISVP2,2013-02-06 13:57:00,
2013-02-06 08:02:00,32.1,29.5,30.24,ENE,77,2.0,3.0,90,0.00,,,0.00,WUHU216DAVISVP2,2013-02-06 14:02:00,
2013-02-06 08:07:00,32.5,29.8,30.23,ENE,75,3.0,3.0,90,0.00,,,0.00,WUHU216DAVISVP2,2013-02-06 14:07:00,
2013-02-06 08:12:00,33.1,30.2,30.24,ESE,102,0.0,4.0,89,0.00,,,0.00,WUHU216DAVISVP2,2013-02-06 14:12:00,
2013-02-06 08:17:00,33.9,31.0,30.24,ESE,115,0.0,4.0,89,0.00,,,0.00,WUHU216DAVISVP2,2013-02-06 14:17:00,
2013-02-06 08:22:00,34.7,31.2,30.24,SE,126,3.0,3.0,87,0.00,,,0.00,WUHU216DAVISVP2,2013-02-06 14:22:00,
2013-02-06 08:27:00,34.9,31.1,30.24,ESE,115,2.0,3.0,86,0.00,,,0.00,WUHU216DAVISVP2,2013-02-06 14:27:00,
2013-02-06 08:32:00,35.3,31.2,30.25,East,83,1.0,3.0,85,0.00,,,0.00,WUHU216DAVISVP2,2013-02-06 14:32:00,
2013-02-06 08:37:00,35.4,31.3,30.25,SE,125,1.0,4.0,85,0.00,,,0.00,WUHU216DAVISVP2,2013-02-06 14:37:00,
2013-02-06 08:42:00,35.9,31.8,30.25,SE,129,2.0,4.0,85,0.00,,,0.00,WUHU216DAVISVP2,2013-02-06 14:42:00,
2013-02-06 08:49:00,36.6,32.2,30.25,SE,126,1.0,3.0,84,0.00,,,0.00,WUHU216DAVISVP2,2013-02-06 14:49:00,
2013-02-06 08:54:00,36.8,32.1,30.26,SSE,164,3.0,4.0,83,0.00,,,0.00,WUHU216DAVISVP2,2013-02-06 14:54:00,
2013-02-06 08:59:00,36.8,32.1,30.26,South,188,1.0,5.0,83,0.00,,,0.00,WUHU216DAVISVP2,2013-02-06 14:59:00,
2013-02-06 09:04:00,36.9,32.2,30.26,South,176,3.0,5.0,83,0.00,,,0.00,WUHU216DAVISVP2,2013-02-06 15:04:00,
2013-02-06 09:09:00,37.3,32.6,30.27,SE,134,1.0,4.0,83,0.00,,,0.00,WUHU216DAVISVP2,2013-02-06 15:09:00,
2013-02-06 09:14:00,37.8,32.5,30.27,South,179,1.0,3.0,81,0.00,,,0.00,WUHU216DAVISVP2,2013-02-06 15:14:00,
2013-02-06 09:19:00,38.0,32.7,30.27,South,174,2.0,5.0,81,0.00,,,0.00,WUHU216DAVISVP2,2013-02-06 15:19:00,
2013-02-06 09:24:00,38.3,32.7,30.27,SSE,166,2.0,5.0,80,0.00,,,0.00,WUHU216DAVISVP2,2013-02-06 15:24:00,
2013-02-06 09:29:00,38.6,32.7,30.27,SSE,155,1.0,6.0,79,0.00,,,0.00,WUHU216DAVISVP2,2013-02-06 15:29:00,
2013-02-06 09:34:00,38.6,32.4,30.27,South,174,3.0,6.0,78,0.00,,,0.00,WUHU216DAVISVP2,2013-02-06 15:34:00,
2013-02-06 09:39:00,38.8,32.9,30.27,SSE,158,0.0,7.0,79,0.00,,,0.00,WUHU216DAVISVP2,2013-02-06 15:39:00,
2013-02-06 09:44:00,39.1,32.9,30.27,South,187,4.0,7.0,78,0.00,,,0.00,WUHU216DAVISVP2,2013-02-06 15:44:00,
2013-02-06 09:49:00,39.3,32.7,30.27,SE,136,2.0,5.0,77,0.00,,,0.00,WUHU216DAVISVP2,2013-02-06 15:49:00,
2013-02-06 09:54:00,39.2,32.6,30.28,SSW,207,4.0,5.0,77,0.00,,,0.00,WUHU216DAVISVP2,2013-02-06 15:54:00,
2013-02-06 09:59:00,39.4,32.8,30.28,South,183,2.0,7.0,77,0.00,,,0.00,WUHU216DAVISVP2,2013-02-06 15:59:00,
2013-02-06 10:04:00,39.8,32.9,30.28,SE,130,0.0,7.0,76,0.00,,,0.00,WUHU216DAVISVP2,2013-02-06 16:04:00,
2013-02-06 10:09:00,39.9,32.7,30.27,SE,136,3.0,6.0,75,0.00,,,0.00,WUHU216DAVISVP2,2013-02-06 16:09:00,
2013-02-06 10:14:00,40.1,32.9,30.28,SSE,152,1.0,4.0,75,0.00,,,0.00,WUHU216DAVISVP2,2013-02-06 16:14:00,
2013-02-06 10:19:00,40.4,32.8,30.27,South,178,1.0,8.0,74,0.00,,,0.00,WUHU216DAVISVP2,2013-02-06 16:19:00,
2013-02-06 10:24:00,40.6,32.7,30.27,ESE,104,3.0,8.0,73,0.00,,,0.00,WUHU216DAVISVP2,2013-02-06 16:24:00,
2013-02-06 10:29:00,40.9,32.9,30.28,South,191,2.0,7.0,73,0.00,,,0.00,WUHU216DAVISVP2,2013-02-06 16:29:00,
2013-02-06 10:34:00,41.3,33.0,30.28,SE,143,2.0,6.0,72,0.00,,,0.00,WUHU216DAVISVP2,2013-02-06 16:34:00,
2013-02-06 10:39:00,41.5,33.6,30.28,SSE,167,5.0,7.0,73,0.00,,,0.00,WUHU216DAVISVP2,2013-02-06 16:39:00,
2013-02-06 10:44:00,41.3,33.0,30.28,SE,125,2.0,7.0,72,0.00,,,0.00,WUHU216DAVISVP2,2013-02-06 16:44:00,
2013-02-06 10:49:00,41.9,33.3,30.28,SE,143,1.0,7.0,71,0.00,,,0.00,WUHU216DAVISVP2,2013-02-06 16:49:00,
2013-02-06 10:54:00,42.3,32.6,30.28,SE,133,4.0,6.0,68,0.00,,,0.00,WUHU216DAVISVP2,2013-02-06 16:54:00,
2013-02-06 10:59:00,42.2,32.5,30.28,SSW,199,2.0,5.0,68,0.00,,,0.00,WUHU216DAVISVP2,2013-02-06 16:59:00,
2013-02-06 11:04:00,42.5,33.1,30.28,ESE,114,4.0,4.0,69,0.00,,,0.00,WUHU216DAVISVP2,2013-02-06 17:04:00,
2013-02-06 11:09:00,42.7,32.9,30.28,SE,134,2.0,4.0,68,0.00,,,0.00,WUHU216DAVISVP2,2013-02-06 17:09:00,
2013-02-06 11:14:00,43.3,33.5,30.28,South,181,3.0,4.0,68,0.00,,,0.00,WUHU216DAVISVP2,2013-02-06 17:14:00,
2013-02-06 11:19:00,43.6,33.5,30.28,WNW,283,0.0,8.0,67,0.00,,,0.00,WUHU216DAVISVP2,2013-02-06 17:19:00,
2013-02-06 11:24:00,44.3,33.4,30.28,South,179,1.0,8.0,65,0.00,,,0.00,WUHU216DAVISVP2,2013-02-06 17:24:00,
2013-02-06 11:29:00,44.3,33.0,30.27,South,176,2.0,6.0,64,0.00,,,0.00,WUHU216DAVISVP2,2013-02-06 17:29:00,
2013-02-06 11:34:00,44.3,33.4,30.27,SE,139,0.0,6.0,65,0.00,,,0.00,WUHU216DAVISVP2,2013-02-06 17:34:00,
2013-02-06 11:39:00,44.7,34.1,30.27,SSE,158,4.0,7.0,66,0.00,,,0.00,WUHU216DAVISVP2,2013-02-06 17:39:00,
2013-02-06 11:44:00,44.5,33.1,30.27,SSW,200,2.0,7.0,64,0.00,,,0.00,WUHU216DAVISVP2,2013-02-06 17:44:00,
2013-02-06 11:49:00,45.0,33.2,30.26,SSE,161,1.0,6.0,63,0.00,,,0.00,WUHU216DAVISVP2,2013-02-06 17:49:00,
2013-02-06 11:54:00,45.1,33.7,30.26,South,185,6.0,6.0,64,0.00,,,0.00,WUHU216DAVISVP2,2013-02-06 17:54:00,
2013-02-06 12:01:00,45.5,33.7,30.26,SSW,193,3.0,6.0,63,0.00,,,0.00,WUHU216DAVISVP2,2013-02-06 18:01:00,
2013-02-06 12:06:00,45.6,33.8,30.26,SW,234,3.0,6.0,63,0.00,,,0.00,WUHU216DAVISVP2,2013-02-06 18:06:00,
2013-02-06 12:11:00,45.7,33.9,30.26,SSW,206,5.0,6.0,63,0.00,,,0.00,WUHU216DAVISVP2,2013-02-06 18:11:00,
2013-02-06 12:16:00,45.3,33.1,30.25,SSE,150,5.0,9.0,62,0.00,,,0.00,WUHU216DAVISVP2,2013-02-06 18:16:00,
2013-02-06 12:21:00,45.3,33.1,30.25,South,181,4.0,9.0,62,0.00,,,0.00,WUHU216DAVISVP2,2013-02-06 18:21:00,
2013-02-06 12:26:00,46.1,33.0,30.25,East,89,1.0,8.0,60,0.00,,,0.00,WUHU216DAVISVP2,2013-02-06 18:26:00,
2013-02-06 12:31:00,46.4,34.5,30.25,SE,143,1.0,4.0,63,0.00,,,0.00,WUHU216DAVISVP2,2013-02-06 18:31:00,
2013-02-06 12:35:00,47.0,33.5,30.25,SW,231,3.0,6.0,59,0.00,,,0.00,WUHU216DAVISVP2,2013-02-06 18:35:00,
2013-02-06 12:40:00,47.0,33.5,30.24,SSW,196,1.0,6.0,59,0.00,,,0.00,WUHU216DAVISVP2,2013-02-06 18:40:00,
2013-02-06 12:45:00,47.3,34.2,30.24,East,88,3.0,6.0,60,0.00,,,0.00,WUHU216DAVISVP2,2013-02-06 18:45:00,
2013-02-06 12:50:00,47.0,33.0,30.24,SSW,210,2.0,6.0,58,0.00,,,0.00,WUHU216DAVISVP2,2013-02-06 18:50:00,
2013-02-06 12:55:00,47.0,33.0,30.23,SSW,207,4.0,6.0,58,0.00,,,0.00,WUHU216DAVISVP2,2013-02-06 18:55:00,
2013-02-06 13:01:00,47.0,33.5,30.23,SE,129,2.0,6.0,59,0.00,,,0.00,WUHU216DAVISVP2,2013-02-06 19:01:00,
2013-02-06 13:06:00,47.2,33.7,30.23,East,94,1.0,4.0,59,0.00,,,0.00,WUHU216DAVISVP2,2013-02-06 19:06:00,
2013-02-06 13:11:00,47.4,32.5,30.22,ESE,120,3.0,6.0,56,0.00,,,0.00,WUHU216DAVISVP2,2013-02-06 19:11:00,
2013-02-06 13:16:00,47.2,33.6,30.22,SSW,208,1.0,7.0,59,0.00,,,0.00,WUHU216DAVISVP2,2013-02-06 19:16:00,
2013-02-06 13:21:00,48.1,33.6,30.21,ENE,65,5.0,7.0,57,0.00,,,0.00,WUHU216DAVISVP2,2013-02-06 19:21:00,
2013-02-06 13:26:00,47.9,33.0,30.21,SE,125,3.0,7.0,56,0.00,,,0.00,WUHU216DAVISVP2,2013-02-06 19:26:00,
2013-02-06 13:31:00,47.6,33.6,30.20,ESE,116,3.0,7.0,58,0.00,,,0.00,WUHU216DAVISVP2,2013-02-06 19:31:00,
2013-02-06 13:36:00,47.4,33.0,30.20,ENE,68,7.0,8.0,57,0.00,,,0.00,WUHU216DAVISVP2,2013-02-06 19:36:00,
2013-02-06 13:41:00,47.3,33.3,30.19,ENE,65,10.0,11.0,58,0.00,,,0.00,WUHU216DAVISVP2,2013-02-06 19:41:00,
2013-02-06 13:46:00,47.0,32.6,30.19,ENE,71,3.0,11.0,57,0.00,,,0.00,WUHU216DAVISVP2,2013-02-06 19:46:00,
2013-02-06 13:51:00,47.6,33.6,30.19,ENE,61,7.0,11.0,58,0.00,,,0.00,WUHU216DAVISVP2,2013-02-06 19:51:00,
2013-02-06 13:56:00,47.3,32.0,30.19,ENE,57,6.0,10.0,55,0.00,,,0.00,WUHU216DAVISVP2,2013-02-06 19:56:00,
2013-02-06 14:01:00,47.2,32.7,30.18,ENE,76,0.0,10.0,57,0.00,,,0.00,WUHU216DAVISVP2,2013-02-06 20:01:00,
2013-02-06 14:06:00,47.7,33.2,30.18,ENE,72,5.0,9.0,57,0.00,,,0.00,WUHU216DAVISVP2,2013-02-06 20:06:00,
2013-02-06 14:12:00,48.0,33.1,30.17,NE,54,7.0,8.0,56,0.00,,,0.00,WUHU216DAVISVP2,2013-02-06 20:12:00,
2013-02-06 14:17:00,47.5,32.2,30.17,ENE,66,6.0,10.0,55,0.00,,,0.00,WUHU216DAVISVP2,2013-02-06 20:17:00,
2013-02-06 14:23:00,47.5,32.2,30.18,ESE,111,4.0,10.0,55,0.00,,,0.00,WUHU216DAVISVP2,2013-02-06 20:23:00,
2013-02-06 14:28:00,47.9,32.1,30.18,ENE,70,4.0,8.0,54,0.00,,,0.00,WUHU216DAVISVP2,2013-02-06 20:28:00,
2013-02-06 14:33:00,47.9,32.1,30.19,ESE,103,5.0,7.0,54,0.00,,,0.00,WUHU216DAVISVP2,2013-02-06 20:33:00,
2013-02-06 14:38:00,48.1,32.3,30.18,ENE,70,3.0,8.0,54,0.00,,,0.00,WUHU216DAVISVP2,2013-02-06 20:38:00,
2013-02-06 14:43:00,48.0,31.2,30.18,ENE,64,6.0,8.0,52,0.00,,,0.00,WUHU216DAVISVP2,2013-02-06 20:43:00,
2013-02-06 14:48:00,47.6,31.3,30.17,ENE,74,8.0,10.0,53,0.00,,,0.00,WUHU216DAVISVP2,2013-02-06 20:48:00,
2013-02-06 14:53:00,47.7,31.4,30.18,East,92,3.0,10.0,53,0.00,,,0.00,WUHU216DAVISVP2,2013-02-06 20:53:00,
2013-02-06 14:58:00,48.2,31.9,30.18,SE,134,5.0,8.0,53,0.00,,,0.00,WUHU216DAVISVP2,2013-02-06 20:58:00,
2013-02-06 15:03:00,48.7,31.9,30.18,SE,136,2.0,5.0,52,0.00,,,0.00,WUHU216DAVISVP2,2013-02-06 21:03:00,
2013-02-06 15:08:00,48.8,31.9,30.18,SSE,157,3.0,9.0,52,0.00,,,0.00,WUHU216DAVISVP2,2013-02-06 21:08:00,
2013-02-06 15:13:00,48.9,32.5,30.18,SE,136,1.0,9.0,53,0.00,,,0.00,WUHU216DAVISVP2,2013-02-06 21:13:00,
2013-02-06 15:18:00,49.0,32.1,30.18,ESE,115,3.0,6.0,52,0.00,,,0.00,WUHU216DAVISVP2,2013-02-06 21:18:00,
2013-02-06 15:23:00,49.0,31.6,30.18,ESE,122,4.0,6.0,51,0.00,,,0.00,WUHU216DAVISVP2,2013-02-06 21:23:00,
2013-02-06 15:28:00,48.8,31.5,30.19,SE,125,1.0,6.0,51,0.00,,,0.00,WUHU216DAVISVP2,2013-02-06 21:28:00,
2013-02-06 15:33:00,49.4,32.0,30.19,SE,138,3.0,6.0,51,0.00,,,0.00,WUHU216DAVISVP2,2013-02-06 21:33:00,
2013-02-06 15:38:00,49.9,33.0,30.19,South,180,3.0,6.0,52,0.00,,,0.00,WUHU216DAVISVP2,2013-02-06 21:38:00,
2013-02-06 15:43:00,50.2,32.2,30.19,ESE,105,7.0,7.0,50,0.00,,,0.00,WUHU216DAVISVP2,2013-02-06 21:43:00,
2013-02-06 15:48:00,49.5,32.1,30.18,East,79,3.0,7.0,51,0.00,,,0.00,WUHU216DAVISVP2,2013-02-06 21:48:00,
2013-02-06 15:54:00,49.5,33.1,30.18,SE,144,5.0,6.0,53,0.00,,,0.00,WUHU216DAVISVP2,2013-02-06 21:54:00,
2013-02-06 15:59:00,49.3,32.9,30.18,SE,125,1.0,6.0,53,0.00,,,0.00,WUHU216DAVISVP2,2013-02-06 21:59:00,
2013-02-06 16:04:00,49.3,32.9,30.18,ESE,120,3.0,6.0,53,0.00,,,0.00,WUHU216DAVISVP2,2013-02-06 22:04:00,
2013-02-06 16:09:00,49.4,33.0,30.18,ESE,119,1.0,5.0,53,0.00,,,0.00,WUHU216DAVISVP2,2013-02-06 22:09:00,
2013-02-06 16:14:00,49.2,32.8,30.17,East,80,2.0,5.0,53,0.00,,,0.00,WUHU216DAVISVP2,2013-02-06 22:14:00,
2013-02-06 16:19:00,48.9,33.5,30.17,ENE,63,6.0,6.0,55,0.00,,,0.00,WUHU216DAVISVP2,2013-02-06 22:19:00,
2013-02-06 16:24:00,48.2,32.8,30.17,East,89,3.0,6.0,55,0.00,,,0.00,WUHU216DAVISVP2,2013-02-06 22:24:00,
2013-02-06 16:29:00,47.9,32.5,30.17,ENE,72,3.0,6.0,55,0.00,,,0.00,WUHU216DAVISVP2,2013-02-06 22:29:00,
2013-02-06 16:34:00,47.5,33.1,30.17,East,101,2.0,5.0,57,0.00,,,0.00,WUHU216DAVISVP2,2013-02-06 22:34:00,
2013-02-06 16:39:00,47.2,32.8,30.17,ESE,114,4.0,5.0,57,0.00,,,0.00,WUHU216DAVISVP2,2013-02-06 22:39:00,
2013-02-06 16:44:00,46.9,33.0,30.17,ESE,110,1.0,5.0,58,0.00,,,0.00,WUHU216DAVISVP2,2013-02-06 22:44:00,
2013-02-06 16:49:00,46.7,32.7,30.17,East,92,3.0,5.0,58,0.00,,,0.00,WUHU216DAVISVP2,2013-02-06 22:49:00,
2013-02-06 16:54:00,46.4,32.8,30.17,ENE,71,3.0,7.0,59,0.00,,,0.00,WUHU216DAVISVP2,2013-02-06 22:54:00,
2013-02-06 16:59:00,46.1,33.1,30.16,ENE,68,4.0,7.0,60,0.00,,,0.00,WUHU216DAVISVP2,2013-02-06 22:59:00,
2013-02-06 17:04:00,45.7,33.1,30.16,ENE,75,4.0,7.0,61,0.00,,,0.00,WUHU216DAVISVP2,2013-02-06 23:04:00,
2013-02-06 17:09:00,45.4,32.8,30.16,ENE,58,2.0,6.0,61,0.00,,,0.00,WUHU216DAVISVP2,2013-02-06 23:09:00,
2013-02-06 17:14:00,45.5,32.9,30.16,ENE,63,5.0,8.0,61,0.00,,,0.00,WUHU216DAVISVP2,2013-02-06 23:14:00,
2013-02-06 17:19:00,45.5,32.9,30.15,ENE,75,4.0,9.0,61,0.00,,,0.00,WUHU216DAVISVP2,2013-02-06 23:19:00,
2013-02-06 17:24:00,45.4,33.1,30.15,SE,124,2.0,9.0,62,0.00,,,0.00,WUHU216DAVISVP2,2013-02-06 23:24:00,
2013-02-06 17:29:00,45.2,33.3,30.15,ENE,77,3.0,8.0,63,0.00,,,0.00,WUHU216DAVISVP2,2013-02-06 23:29:00,
2013-02-06 17:34:00,45.1,33.7,30.15,East,89,6.0,9.0,64,0.00,,,0.00,WUHU216DAVISVP2,2013-02-06 23:34:00,
2013-02-06 17:39:00,44.9,33.5,30.15,East,79,3.0,9.0,64,0.00,,,0.00,WUHU216DAVISVP2,2013-02-06 23:39:00,
2013-02-06 17:45:00,44.7,33.7,30.15,East,82,6.0,8.0,65,0.00,,,0.00,WUHU216DAVISVP2,2013-02-06 23:45:00,
2013-02-06 17:50:00,44.6,34.0,30.16,East,82,6.0,10.0,66,0.00,,,0.00,WUHU216DAVISVP2,2013-02-06 23:50:00,
2013-02-06 17:56:00,44.3,34.0,30.16,East,82,2.0,10.0,67,0.00,,,0.00,WUHU216DAVISVP2,2013-02-06 23:56:00,
2013-02-06 18:01:00,44.1,33.8,30.16,ENE,77,2.0,5.0,67,0.00,,,0.00,WUHU216DAVISVP2,2013-02-07 00:01:00,
2013-02-06 18:06:00,44.0,33.8,30.16,ESE,104,2.0,7.0,67,0.00,,,0.00,WUHU216DAVISVP2,2013-02-07 00:06:00,
2013-02-06 18:11:00,43.9,33.7,30.16,ENE,77,5.0,7.0,67,0.00,,,0.00,WUHU216DAVISVP2,2013-02-07 00:11:00,
2013-02-06 18:16:00,43.9,33.7,30.15,East,82,8.0,8.0,67,0.00,,,0.00,WUHU216DAVISVP2,2013-02-07 00:16:00,
2013-02-06 18:21:00,43.8,34.0,30.15,ENE,70,3.0,8.0,68,0.00,,,0.00,WUHU216DAVISVP2,2013-02-07 00:21:00,
2013-02-06 18:26:00,43.7,33.8,30.15,East,89,4.0,9.0,68,0.00,,,0.00,WUHU216DAVISVP2,2013-02-07 00:26:00,
2013-02-06 18:31:00,43.6,34.2,30.15,SE,139,1.0,9.0,69,0.00,,,0.00,WUHU216DAVISVP2,2013-02-07 00:31:00,
2013-02-06 18:36:00,43.4,33.9,30.15,East,88,3.0,6.0,69,0.00,,,0.00,WUHU216DAVISVP2,2013-02-07 00:36:00,
2013-02-06 18:41:00,43.3,33.9,30.16,SE,129,3.0,6.0,69,0.00,,,0.00,WUHU216DAVISVP2,2013-02-07 00:41:00,
2013-02-06 18:46:00,43.2,33.7,30.16,SE,124,2.0,5.0,69,0.00,,,0.00,WUHU216DAVISVP2,2013-02-07 00:46:00,
2013-02-06 18:51:00,43.2,34.2,30.16,SE,136,2.0,5.0,70,0.00,,,0.00,WUHU216DAVISVP2,2013-02-07 00:51:00,
2013-02-06 18:56:00,43.2,33.8,30.16,SE,140,4.0,6.0,69,0.00,,,0.00,WUHU216DAVISVP2,2013-02-07 00:56:00,
2013-02-06 19:01:00,43.1,33.7,30.16,SE,136,4.0,6.0,69,0.00,,,0.00,WUHU216DAVISVP2,2013-02-07 01:01:00,
2013-02-06 19:06:00,42.9,33.9,30.15,East,81,2.0,6.0,70,0.00,,,0.00,WUHU216DAVISVP2,2013-02-07 01:06:00,
2013-02-06 19:11:00,42.8,33.8,30.15,SE,126,2.0,4.0,70,0.00,,,0.00,WUHU216DAVISVP2,2013-02-07 01:11:00,
2013-02-06 19:16:00,42.7,34.0,30.15,ESE,116,3.0,7.0,71,0.00,,,0.00,WUHU216DAVISVP2,2013-02-07 01:16:00,
2013-02-06 19:21:00,42.5,33.8,30.15,ESE,112,3.0,7.0,71,0.00,,,0.00,WUHU216DAVISVP2,2013-02-07 01:21:00,
2013-02-06 19:26:00,42.5,33.8,30.16,SSE,148,2.0,6.0,71,0.00,,,0.00,WUHU216DAVISVP2,2013-02-07 01:26:00,
2013-02-06 19:31:00,42.4,33.7,30.16,ESE,120,5.0,6.0,71,0.00,,,0.00,WUHU216DAVISVP2,2013-02-07 01:31:00,
2013-02-06 19:36:00,42.2,33.5,30.15,SE,125,5.0,9.0,71,0.00,,,0.00,WUHU216DAVISVP2,2013-02-07 01:36:00,
2013-02-06 19:41:00,42.2,33.5,30.15,East,86,3.0,9.0,71,0.00,,,0.00,WUHU216DAVISVP2,2013-02-07 01:41:00,
2013-02-06 19:47:00,41.9,33.6,30.15,East,92,3.0,7.0,72,0.00,,,0.00,WUHU216DAVISVP2,2013-02-07 01:47:00,
2013-02-06 19:52:00,41.9,33.3,30.16,SE,141,3.0,5.0,71,0.00,,,0.00,WUHU216DAVISVP2,2013-02-07 01:52:00,
2013-02-06 19:57:00,41.8,33.2,30.16,SE,129,2.0,6.0,71,0.00,,,0.00,WUHU216DAVISVP2,2013-02-07 01:57:00,
2013-02-06 20:02:00,41.7,33.0,30.16,SE,136,4.0,6.0,71,0.00,,,0.00,WUHU216DAVISVP2,2013-02-07 02:02:00,
2013-02-06 20:07:00,41.7,33.1,30.16,SE,124,3.0,7.0,71,0.00,,,0.00,WUHU216DAVISVP2,2013-02-07 02:07:00,
2013-02-06 20:12:00,41.6,33.3,30.16,SE,127,4.0,7.0,72,0.00,,,0.00,WUHU216DAVISVP2,2013-02-07 02:12:00,
2013-02-06 20:17:00,41.5,33.2,30.16,ENE,76,2.0,6.0,72,0.00,,,0.00,WUHU216DAVISVP2,2013-02-07 02:17:00,
2013-02-06 20:22:00,41.4,33.1,30.16,SE,142,0.0,6.0,72,0.00,,,0.00,WUHU216DAVISVP2,2013-02-07 02:22:00,
2013-02-06 20:27:00,41.3,33.0,30.16,SE,146,2.0,5.0,72,0.00,,,0.00,WUHU216DAVISVP2,2013-02-07 02:27:00,
2013-02-06 20:32:00,41.3,33.0,30.16,ESE,117,3.0,7.0,72,0.00,,,0.00,WUHU216DAVISVP2,2013-02-07 02:32:00,
2013-02-06 20:38:00,41.2,33.3,30.16,ESE,104,9.0,9.0,73,0.00,,,0.00,WUHU216DAVISVP2,2013-02-07 02:38:00,
2013-02-06 20:43:00,41.1,33.2,30.16,East,89,1.0,9.0,73,0.00,,,0.00,WUHU216DAVISVP2,2013-02-07 02:43:00,
2013-02-06 20:48:00,41.0,33.1,30.15,East,89,2.0,7.0,73,0.00,,,0.00,WUHU216DAVISVP2,2013-02-07 02:48:00,
2013-02-06 20:53:00,41.0,33.1,30.15,ESE,120,2.0,6.0,73,0.00,,,0.00,WUHU216DAVISVP2,2013-02-07 02:53:00,
2013-02-06 20:58:00,40.9,33.0,30.16,SE,143,3.0,6.0,73,0.00,,,0.00,WUHU216DAVISVP2,2013-02-07 02:58:00,
2013-02-06 21:03:00,41.0,33.1,30.16,ESE,109,4.0,9.0,73,0.00,,,0.00,WUHU216DAVISVP2,2013-02-07 03:03:00,
2013-02-06 21:09:00,40.9,33.0,30.16,ESE,123,1.0,8.0,73,0.00,,,0.00,WUHU216DAVISVP2,2013-02-07 03:09:00,
2013-02-06 21:14:00,40.9,33.0,30.16,East,82,3.0,7.0,73,0.00,,,0.00,WUHU216DAVISVP2,2013-02-07 03:14:00,
2013-02-06 21:19:00,40.8,32.9,30.15,East,86,4.0,7.0,73,0.00,,,0.00,WUHU216DAVISVP2,2013-02-07 03:19:00,
2013-02-06 21:24:00,40.7,32.8,30.15,SE,124,2.0,7.0,73,0.00,,,0.00,WUHU216DAVISVP2,2013-02-07 03:24:00,
2013-02-06 21:29:00,40.7,33.1,30.15,SE,129,2.0,7.0,74,0.00,,,0.00,WUHU216DAVISVP2,2013-02-07 03:29:00,
2013-02-06 21:34:00,40.7,32.8,30.15,ESE,112,3.0,7.0,73,0.00,,,0.00,WUHU216DAVISVP2,2013-02-07 03:34:00,
2013-02-06 21:39:00,40.7,32.8,30.15,SSE,158,4.0,8.0,73,0.00,,,0.00,WUHU216DAVISVP2,2013-02-07 03:39:00,
2013-02-06 21:44:00,40.7,32.8,30.15,SE,125,5.0,8.0,73,0.00,,,0.00,WUHU216DAVISVP2,2013-02-07 03:44:00,
2013-02-06 21:49:00,40.8,32.9,30.14,SE,126,4.0,9.0,73,0.00,,,0.00,WUHU216DAVISVP2,2013-02-07 03:49:00,
2013-02-06 21:54:00,40.7,32.8,30.13,SE,139,4.0,9.0,73,0.00,,,0.00,WUHU216DAVISVP2,2013-02-07 03:54:00,
2013-02-06 21:59:00,40.7,32.8,30.14,ESE,118,3.0,7.0,73,0.00,,,0.00,WUHU216DAVISVP2,2013-02-07 03:59:00,
2013-02-06 22:04:00,40.8,32.9,30.13,East,93,2.0,7.0,73,0.00,,,0.00,WUHU216DAVISVP2,2013-02-07 04:04:00,
2013-02-06 22:10:00,40.8,32.9,30.13,ESE,105,2.0,7.0,73,0.00,,,0.00,WUHU216DAVISVP2,2013-02-07 04:10:00,
2013-02-06 22:15:00,40.8,32.8,30.13,East,96,2.0,6.0,73,0.00,,,0.00,WUHU216DAVISVP2,2013-02-07 04:15:00,
2013-02-06 22:20:00,40.8,32.8,30.13,East,82,3.0,5.0,73,0.00,,,0.00,WUHU216DAVISVP2,2013-02-07 04:20:00,
2013-02-06 22:25:00,40.7,32.7,30.14,ESE,116,2.0,7.0,73,0.00,,,0.00,WUHU216DAVISVP2,2013-02-07 04:25:00,
2013-02-06 22:30:00,40.8,32.9,30.14,ENE,73,2.0,7.0,73,0.00,,,0.00,WUHU216DAVISVP2,2013-02-07 04:30:00,
2013-02-06 22:35:00,40.7,32.8,30.13,SE,141,3.0,6.0,73,0.00,,,0.00,WUHU216DAVISVP2,2013-02-07 04:35:00,
2013-02-06 22:40:00,40.7,32.8,30.13,SE,146,1.0,5.0,73,0.00,,,0.00,WUHU216DAVISVP2,2013-02-07 04:40:00,
2013-02-06 22:45:00,40.6,32.7,30.13,ESE,109,1.0,5.0,73,0.00,,,0.00,WUHU216DAVISVP2,2013-02-07 04:45:00,
2013-02-06 22:50:00,40.5,32.9,30.13,East,93,2.0,4.0,74,0.00,,,0.00,WUHU216DAVISVP2,2013-02-07 04:50:00,
2013-02-06 22:55:00,40.4,32.8,30.13,East,98,2.0,4.0,74,0.00,,,0.00,WUHU216DAVISVP2,2013-02-07 04:55:00,
2013-02-06 23:00:00,40.3,32.7,30.13,ENE,72,0.0,4.0,74,0.00,,,0.00,WUHU216DAVISVP2,2013-02-07 05:00:00,
2013-02-06 23:01:00,40.3,32.7,30.13,South,174,1.0,4.0,74,0.00,,,0.00,WUHU216DAVISVP2,2013-02-07 05:01:00,
2013-02-06 23:06:00,40.2,32.6,30.13,ESE,115,2.0,4.0,74,0.00,,,0.00,WUHU216DAVISVP2,2013-02-07 05:06:00,
2013-02-06 23:11:00,40.1,32.5,30.13,ESE,108,2.0,3.0,74,0.00,,,0.00,WUHU216DAVISVP2,2013-02-07 05:11:00,
2013-02-06 23:16:00,40.1,32.5,30.13,SSE,161,1.0,4.0,74,0.00,,,0.00,WUHU216DAVISVP2,2013-02-07 05:16:00,
2013-02-06 23:21:00,40.0,32.8,30.13,East,86,3.0,5.0,75,0.00,,,0.00,WUHU216DAVISVP2,2013-02-07 05:21:00,
2013-02-06 23:26:00,40.0,32.8,30.13,East,79,1.0,5.0,75,0.00,,,0.00,WUHU216DAVISVP2,2013-02-07 05:26:00,
2013-02-06 23:31:00,39.9,32.6,30.13,ENE,71,3.0,5.0,75,0.00,,,0.00,WUHU216DAVISVP2,2013-02-07 05:31:00,
2013-02-06 23:36:00,39.9,32.7,30.12,ENE,75,3.0,6.0,75,0.00,,,0.00,WUHU216DAVISVP2,2013-02-07 05:36:00,
2013-02-06 23:42:00,39.8,32.9,30.12,ENE,68,3.0,6.0,76,0.00,,,0.00,WUHU216DAVISVP2,2013-02-07 05:42:00,
2013-02-06 23:47:00,39.6,32.7,30.11,ENE,78,3.0,6.0,76,0.00,,,0.00,WUHU216DAVISVP2,2013-02-07 05:47:00,
2013-02-06 23:52:00,39.6,32.7,30.11,SE,139,2.0,7.0,76,0.00,,,0.00,WUHU216DAVISVP2,2013-02-07 05:52:00,
2013-02-06 23:57:00,39.6,32.7,30.10,East,79,2.0,8.0,76,0.00,,,0.00,WUHU216DAVISVP2,2013-02-07 05:57:00,